createdAt,value
2018-07-28T00:01:51.353Z,12.27
2018-07-28T00:04:19.816Z,13.80
2018-07-28T00:06:47.738Z,12.90
2018-07-28T00:09:15.737Z,15.90
2018-07-28T00:11:43.660Z,12.90
2018-07-28T00:14:11.406Z,13.03
2018-07-28T00:16:39.303Z,13.00
2018-07-28T00:19:07.344Z,17.37
2018-07-28T00:21:35.835Z,26.97
2018-07-28T00:24:03.659Z,29.10
2018-07-28T00:26:31.566Z,17.90
2018-07-28T00:28:59.289Z,16.50
2018-07-28T00:31:27.706Z,10.80
2018-07-28T00:33:56.244Z,16.37
2018-07-28T00:36:24.116Z,11.77
2018-07-28T00:38:51.978Z,11.00
2018-07-28T00:41:19.930Z,18.93
2018-07-28T00:43:48.536Z,12.37
2018-07-28T00:46:16.428Z,11.87
2018-07-28T00:48:44.282Z,14.03
2018-07-28T00:51:12.239Z,12.93
2018-07-28T00:53:40.251Z,17.60
2018-07-28T00:56:08.532Z,11.67
2018-07-28T00:58:36.456Z,14.50
2018-07-28T01:01:04.369Z,11.63
2018-07-28T01:03:32.300Z,12.53
2018-07-28T01:06:00.804Z,11.63
2018-07-28T01:08:28.702Z,15.87
2018-07-28T01:10:56.452Z,18.00
2018-07-28T01:13:25.572Z,12.03
2018-07-28T01:15:54.204Z,14.00
2018-07-28T01:18:22.108Z,16.20
2018-07-28T01:20:51.247Z,14.00
2018-07-28T01:23:19.174Z,13.00
2018-07-28T01:25:46.883Z,11.70
2018-07-28T01:28:14.771Z,14.70
2018-07-28T01:30:43.073Z,12.40
2018-07-28T01:33:10.814Z,14.20
2018-07-28T01:35:38.747Z,14.27
2018-07-28T01:38:06.628Z,22.50
2018-07-28T01:40:34.614Z,19.50
2018-07-28T01:43:02.486Z,17.80
2018-07-28T01:45:30.441Z,19.30
2018-07-28T01:47:58.975Z,10.60
2018-07-28T01:50:27.525Z,10.27
2018-07-28T01:52:55.354Z,13.57
2018-07-28T01:55:23.265Z,13.10
2018-07-28T01:57:51.150Z,12.47
2018-07-28T02:00:18.889Z,11.43
2018-07-28T02:02:46.757Z,11.13
2018-07-28T02:05:14.706Z,10.17
2018-07-28T02:07:42.565Z,11.87
2018-07-28T02:10:10.582Z,13.37
2018-07-28T02:12:38.688Z,16.77
2018-07-28T02:15:07.569Z,17.13
2018-07-28T02:17:35.473Z,14.80
2018-07-28T02:20:04.384Z,19.07
2018-07-28T02:22:32.892Z,14.20
2018-07-28T02:25:00.827Z,14.87
2018-07-28T02:27:28.910Z,19.60
2018-07-28T02:29:57.297Z,15.53
2018-07-28T02:32:25.246Z,16.63
2018-07-28T02:34:53.925Z,18.47
2018-07-28T02:37:21.810Z,17.10
2018-07-28T02:39:49.721Z,16.93
2018-07-28T02:42:17.645Z,16.03
2018-07-28T02:44:45.652Z,19.10
2018-07-28T02:47:13.548Z,13.23
2018-07-28T02:49:42.021Z,12.17
2018-07-28T02:52:09.999Z,16.00
2018-07-28T02:54:37.947Z,22.43
2018-07-28T02:57:05.849Z,15.97
2018-07-28T02:59:33.710Z,15.20
2018-07-28T03:02:01.616Z,18.70
2018-07-28T03:04:29.385Z,13.60
2018-07-28T03:06:57.906Z,16.20
2018-07-28T03:09:26.151Z,22.70
2018-07-28T03:11:54.049Z,18.53
2018-07-28T03:14:21.945Z,14.27
2018-07-28T03:16:49.831Z,16.60
2018-07-28T03:19:18.246Z,16.50
2018-07-28T03:21:46.626Z,17.60
2018-07-28T03:24:15.271Z,19.07
2018-07-28T03:26:43.220Z,17.87
2018-07-28T03:29:11.149Z,20.57
2018-07-28T03:31:39.147Z,14.63
2018-07-28T03:34:07.141Z,18.23
2018-07-28T03:36:35.041Z,13.70
2018-07-28T03:39:03.376Z,16.87
2018-07-28T03:41:31.332Z,14.67
2018-07-28T03:43:59.215Z,19.33
2018-07-28T03:46:27.156Z,15.77
2018-07-28T03:48:55.157Z,16.30
2018-07-28T03:51:23.035Z,13.80
2018-07-28T03:53:50.979Z,21.30
2018-07-28T03:56:18.925Z,24.17
2018-07-28T03:58:46.875Z,14.83
2018-07-28T04:01:14.811Z,15.03
2018-07-28T04:03:43.349Z,14.30
2018-07-28T04:06:11.292Z,12.20
2018-07-28T04:08:39.010Z,26.83
2018-07-28T04:11:06.923Z,18.87
2018-07-28T04:13:35.395Z,20.73
2018-07-28T04:16:04.232Z,17.90
2018-07-28T04:18:33.376Z,15.00
2018-07-28T04:21:01.152Z,15.63
2018-07-28T04:23:28.877Z,21.53
2018-07-28T04:25:57.572Z,26.30
2018-07-28T04:28:26.073Z,16.73
2018-07-28T04:30:54.746Z,12.07
2018-07-28T04:33:22.804Z,15.10
2018-07-28T04:35:51.104Z,18.60
2018-07-28T04:38:18.975Z,11.37
2018-07-28T04:40:47.711Z,20.27
2018-07-28T04:43:15.839Z,23.57
2018-07-28T04:45:43.780Z,21.53
2018-07-28T04:48:12.289Z,15.93
2018-07-28T04:50:40.017Z,18.70
2018-07-28T04:53:08.185Z,18.17
2018-07-28T04:55:36.059Z,19.73
2018-07-28T04:58:03.935Z,18.20
2018-07-28T05:00:31.888Z,16.47
2018-07-28T05:03:00.412Z,17.80
2018-07-28T05:05:28.163Z,15.47
2018-07-28T05:07:56.077Z,16.33
2018-07-28T05:10:24.009Z,20.53
2018-07-28T05:12:51.928Z,25.13
2018-07-28T05:15:20.168Z,19.23
2018-07-28T05:17:48.643Z,17.60
2018-07-28T05:20:16.396Z,21.60
2018-07-28T05:22:44.280Z,23.10
2018-07-28T05:25:12.599Z,30.67
2018-07-28T05:27:40.504Z,25.70
2018-07-28T05:30:10.150Z,25.70
2018-07-28T05:32:38.188Z,26.07
2018-07-28T05:35:07.719Z,23.10
2018-07-28T05:37:35.684Z,20.80
2018-07-28T05:40:03.969Z,21.93
2018-07-28T05:42:32.242Z,21.93
2018-07-28T05:45:00.837Z,20.03
2018-07-28T05:47:28.775Z,18.00
2018-07-28T05:49:56.720Z,18.50
2018-07-28T05:52:24.656Z,16.03
2018-07-28T05:54:52.540Z,17.13
2018-07-28T05:57:20.511Z,13.03
2018-07-28T05:59:49.117Z,14.90
2018-07-28T06:02:17.010Z,17.07
2018-07-28T06:04:45.581Z,18.07
2018-07-28T06:07:13.491Z,22.90
2018-07-28T06:09:41.465Z,14.70
2018-07-28T06:12:10.677Z,14.80
2018-07-28T06:14:38.524Z,17.80
2018-07-28T06:17:06.523Z,19.30
2018-07-28T06:19:35.012Z,16.00
2018-07-28T06:22:04.057Z,13.60
2018-07-28T06:24:31.908Z,13.17
2018-07-28T06:26:59.651Z,15.30
2018-07-28T06:29:27.604Z,18.30
2018-07-28T06:31:55.682Z,16.67
2018-07-28T06:34:23.720Z,20.67
2018-07-28T06:36:51.593Z,17.57
2018-07-28T06:39:19.521Z,16.70
2018-07-28T06:41:48.053Z,15.40
2018-07-28T06:44:15.980Z,23.47
2018-07-28T06:46:44.487Z,17.57
2018-07-28T06:49:12.386Z,15.90
2018-07-28T06:51:40.937Z,17.10
2018-07-28T06:54:08.868Z,22.53
2018-07-28T06:56:36.807Z,16.00
2018-07-28T06:59:10.934Z,17.60
2018-07-28T07:01:39.208Z,19.93
2018-07-28T07:04:07.165Z,18.43
2018-07-28T07:06:35.477Z,23.27
2018-07-28T07:09:05.564Z,18.50
2018-07-28T07:11:33.861Z,16.93
2018-07-28T07:14:03.171Z,19.50
2018-07-28T07:16:31.467Z,18.47
2018-07-28T07:18:59.322Z,19.03
2018-07-28T07:21:27.087Z,19.57
2018-07-28T07:23:55.811Z,31.20
2018-07-28T07:26:23.802Z,24.30
2018-07-28T07:28:52.458Z,21.70
2018-07-28T07:31:20.340Z,17.07
2018-07-28T07:33:48.236Z,22.67
2018-07-28T07:36:21.977Z,22.90
2018-07-28T07:38:50.136Z,27.70
2018-07-28T07:41:17.999Z,24.63
2018-07-28T07:43:45.756Z,21.33
2018-07-28T07:46:13.532Z,23.93
2018-07-28T07:48:41.303Z,28.53
2018-07-28T07:51:09.094Z,22.60
2018-07-28T07:53:37.474Z,25.63
2018-07-28T07:56:07.072Z,26.10
2018-07-28T07:58:35.922Z,21.37
2018-07-28T08:01:04.235Z,25.57
2018-07-28T08:03:32.785Z,20.60
2018-07-28T08:06:00.542Z,22.07
2018-07-28T08:08:28.315Z,27.47
2018-07-28T08:10:56.256Z,25.20
2018-07-28T08:13:24.170Z,21.50
2018-07-28T08:15:52.377Z,22.00
2018-07-28T08:18:20.375Z,27.10
2018-07-28T08:20:48.342Z,25.43
2018-07-28T08:23:16.372Z,20.63
2018-07-28T08:25:45.635Z,23.10
2018-07-28T08:28:15.120Z,24.50
2018-07-28T08:30:45.117Z,17.97
2018-07-28T08:33:12.976Z,18.93
2018-07-28T08:35:40.800Z,15.23
2018-07-28T08:38:08.720Z,22.40
2018-07-28T08:40:36.626Z,20.63
2018-07-28T08:43:04.902Z,24.70
2018-07-28T08:45:32.831Z,17.07
2018-07-28T08:48:00.816Z,27.00
2018-07-28T08:50:30.039Z,17.00
2018-07-28T08:52:57.800Z,21.90
2018-07-28T08:55:25.695Z,20.20
2018-07-28T08:57:53.587Z,20.43
2018-07-28T09:00:21.494Z,14.57
2018-07-28T09:02:50.155Z,14.80
2018-07-28T09:05:18.039Z,15.50
2018-07-28T09:07:46.888Z,14.20
2018-07-28T09:10:14.823Z,13.43
2018-07-28T09:12:42.931Z,17.00
2018-07-28T09:15:11.448Z,15.50
2018-07-28T09:17:39.477Z,15.20
2018-07-28T09:20:08.321Z,16.57
2018-07-28T09:22:36.845Z,17.33
2018-07-28T09:25:06.342Z,15.03
2018-07-28T09:27:34.132Z,15.60
2018-07-28T09:30:02.115Z,15.73
2018-07-28T09:32:30.878Z,15.60
2018-07-28T09:34:58.775Z,15.30
2018-07-28T09:37:26.692Z,21.23
2018-07-28T09:39:55.296Z,17.27
2018-07-28T09:42:23.479Z,13.20
2018-07-28T09:44:51.452Z,13.27
2018-07-28T09:47:20.408Z,14.07
2018-07-28T09:49:48.308Z,12.83
2018-07-28T09:52:16.216Z,12.83
2018-07-28T09:54:44.086Z,11.90
2018-07-28T09:57:12.006Z,12.90
2018-07-28T09:59:40.469Z,13.20
2018-07-28T10:02:08.325Z,13.10
2018-07-28T10:04:36.899Z,11.03
2018-07-28T10:07:04.677Z,8.73
2018-07-28T10:09:33.175Z,12.77
2018-07-28T10:12:01.033Z,10.70
2018-07-28T10:14:28.898Z,8.20
2018-07-28T10:16:57.220Z,7.67
2018-07-28T10:19:25.779Z,10.00
2018-07-28T10:21:53.762Z,8.93
2018-07-28T10:24:21.642Z,7.90
2018-07-28T10:26:50.207Z,8.50
2018-07-28T10:29:18.094Z,11.40
2018-07-28T10:31:46.003Z,9.93
2018-07-28T10:34:13.832Z,13.07
2018-07-28T10:36:41.819Z,17.00
2018-07-28T10:39:11.995Z,10.73
2018-07-28T10:41:39.848Z,14.20
2018-07-28T10:44:07.997Z,10.20
2018-07-28T10:46:36.295Z,9.70
2018-07-28T10:49:05.033Z,10.23
2018-07-28T10:51:33.011Z,9.23
2018-07-28T10:54:00.898Z,9.30
2018-07-28T10:56:28.835Z,10.67
2018-07-28T10:58:56.738Z,12.87
2018-07-28T11:01:24.458Z,9.70
2018-07-28T11:03:52.479Z,9.40
2018-07-28T11:06:20.407Z,15.90
2018-07-28T11:08:48.303Z,8.73
2018-07-28T11:11:16.199Z,8.47
2018-07-28T11:13:44.082Z,8.83
2018-07-28T11:16:12.071Z,9.20
2018-07-28T11:18:39.979Z,7.20
2018-07-28T11:21:08.472Z,8.60
2018-07-28T11:23:47.682Z,6.30
2018-07-28T11:26:18.662Z,7.10
2018-07-28T11:28:47.119Z,6.80
2018-07-28T11:31:26.420Z,8.83
2018-07-28T11:34:06.094Z,8.43
2018-07-28T11:36:39.726Z,7.90
2018-07-28T11:39:18.797Z,6.60
2018-07-28T11:41:58.066Z,11.67
2018-07-28T11:44:31.515Z,7.37
2018-07-28T11:46:59.391Z,7.07
2018-07-28T11:49:27.880Z,6.00
2018-07-28T11:51:56.419Z,10.47
2018-07-28T11:54:24.969Z,8.30
2018-07-28T11:56:52.860Z,7.00
2018-07-28T11:59:20.772Z,7.47
2018-07-28T12:01:49.008Z,6.80
2018-07-28T12:04:17.020Z,5.97
2018-07-28T12:06:45.675Z,6.60
2018-07-28T12:09:13.630Z,12.10
2018-07-28T12:11:41.892Z,5.63
2018-07-28T12:14:10.250Z,6.50
2018-07-28T12:16:38.460Z,5.33
2018-07-28T12:19:06.393Z,5.97
2018-07-28T12:21:34.305Z,6.37
2018-07-28T12:24:02.377Z,5.40
2018-07-28T12:26:30.196Z,8.73
2018-07-28T12:28:58.070Z,7.63
2018-07-28T12:31:25.951Z,5.87
2018-07-28T12:33:53.836Z,6.73
2018-07-28T12:36:21.681Z,4.50
2018-07-28T12:38:49.558Z,8.63
2018-07-28T12:41:17.420Z,4.80
2018-07-28T12:43:46.032Z,5.23
2018-07-28T12:46:14.053Z,6.90
2018-07-28T12:48:41.954Z,5.90
2018-07-28T12:51:09.969Z,6.00
2018-07-28T12:53:37.835Z,7.40
2018-07-28T12:56:05.836Z,4.70
2018-07-28T12:58:33.745Z,10.60
2018-07-28T13:01:01.501Z,5.67
2018-07-28T13:03:29.259Z,9.83
2018-07-28T13:05:57.350Z,6.00
2018-07-28T13:08:25.874Z,8.37
2018-07-28T13:10:53.786Z,6.50
2018-07-28T13:13:21.650Z,8.33
2018-07-28T13:15:49.824Z,7.73
2018-07-28T13:18:17.588Z,7.80
2018-07-28T13:20:45.332Z,20.53
2018-07-28T13:23:13.193Z,9.13
2018-07-28T13:25:41.105Z,8.90
2018-07-28T13:28:09.700Z,13.17
2018-07-28T13:30:37.712Z,8.70
2018-07-28T13:33:05.465Z,10.80
2018-07-28T13:35:33.435Z,14.10
2018-07-28T13:38:02.538Z,6.03
2018-07-28T13:40:30.427Z,7.53
2018-07-28T13:42:58.356Z,10.70
2018-07-28T13:45:27.087Z,16.50
2018-07-28T13:47:54.811Z,7.57
2018-07-28T13:50:22.658Z,12.50
2018-07-28T13:52:50.576Z,8.57
2018-07-28T13:55:18.460Z,8.73
2018-07-28T13:57:47.224Z,6.53
2018-07-28T14:00:15.232Z,12.93
2018-07-28T14:02:44.032Z,7.00
2018-07-28T14:05:11.961Z,8.50
2018-07-28T14:07:40.062Z,8.40
2018-07-28T14:10:08.615Z,6.70
2018-07-28T14:12:36.496Z,6.47
2018-07-28T14:15:06.060Z,6.97
2018-07-28T14:17:33.909Z,10.00
2018-07-28T14:20:01.841Z,16.57
2018-07-28T14:22:30.276Z,8.07
2018-07-28T14:24:58.230Z,9.80
2018-07-28T14:27:26.860Z,8.57
2018-07-28T14:29:54.771Z,11.40
2018-07-28T14:32:23.723Z,5.43
2018-07-28T14:34:51.638Z,8.60
2018-07-28T14:37:22.688Z,11.57
2018-07-28T14:39:51.201Z,5.87
2018-07-28T14:42:19.104Z,9.47
2018-07-28T14:44:47.083Z,10.80
2018-07-28T14:47:14.954Z,6.83
2018-07-28T14:49:42.755Z,5.23
2018-07-28T14:52:10.631Z,13.23
2018-07-28T14:54:39.312Z,10.13
2018-07-28T14:57:07.223Z,5.60
2018-07-28T14:59:35.173Z,8.60
2018-07-28T15:02:03.108Z,8.87
2018-07-28T15:04:31.008Z,6.00
2018-07-28T15:06:58.719Z,12.70
2018-07-28T15:09:26.446Z,6.63
2018-07-28T15:11:54.313Z,7.60
2018-07-28T15:14:22.170Z,4.80
2018-07-28T15:16:49.950Z,7.37
2018-07-28T15:19:18.296Z,6.83
2018-07-28T15:21:46.181Z,5.30
2018-07-28T15:24:14.096Z,5.07
2018-07-28T15:26:41.992Z,6.27
2018-07-28T15:29:10.495Z,10.10
2018-07-28T15:31:38.695Z,5.20
2018-07-28T15:34:06.633Z,10.23
2018-07-28T15:36:34.542Z,7.03
2018-07-28T15:39:02.608Z,4.47
2018-07-28T15:41:30.341Z,6.63
2018-07-28T15:43:58.232Z,4.00
2018-07-28T15:46:26.069Z,6.03
2018-07-28T15:48:53.965Z,5.20
2018-07-28T15:51:22.000Z,4.73
2018-07-28T15:53:49.858Z,4.40
2018-07-28T15:56:17.754Z,7.17
2018-07-28T15:58:45.584Z,4.80
2018-07-28T16:01:13.594Z,4.27
2018-07-28T16:03:41.333Z,5.93
2018-07-28T16:06:09.247Z,4.80
2018-07-28T16:08:37.656Z,4.47
2018-07-28T16:11:05.765Z,4.67
2018-07-28T16:13:33.719Z,4.83
2018-07-28T16:16:01.696Z,3.70
2018-07-28T16:18:29.617Z,3.40
2018-07-28T16:20:58.135Z,5.13
2018-07-28T16:23:26.012Z,4.77
2018-07-28T16:25:53.895Z,4.10
2018-07-28T16:28:21.713Z,3.80
2018-07-28T16:30:49.597Z,5.40
2018-07-28T16:33:17.458Z,5.40
2018-07-28T16:35:45.363Z,6.03
2018-07-28T16:38:13.257Z,5.33
2018-07-28T16:40:41.121Z,3.77
2018-07-28T16:43:09.157Z,3.97
2018-07-28T16:45:36.986Z,3.80
2018-07-28T16:48:05.037Z,4.20
2018-07-28T16:50:33.536Z,5.97
2018-07-28T16:53:01.982Z,4.23
2018-07-28T16:55:29.886Z,4.07
2018-07-28T16:57:57.783Z,3.83
2018-07-28T17:00:25.663Z,4.60
2018-07-28T17:02:53.513Z,5.10
2018-07-28T17:05:21.377Z,7.00
2018-07-28T17:07:49.366Z,4.20
2018-07-28T17:10:17.244Z,9.20
2018-07-28T17:12:45.287Z,5.10
2018-07-28T17:15:13.182Z,5.73
2018-07-28T17:17:42.333Z,4.60
2018-07-28T17:20:10.312Z,5.80
2018-07-28T17:22:38.279Z,5.33
2018-07-28T17:25:06.174Z,5.10
2018-07-28T17:27:34.475Z,4.50
2018-07-28T17:30:02.338Z,5.77
2018-07-28T17:32:30.363Z,6.00
2018-07-28T17:34:58.527Z,5.50
2018-07-28T17:37:26.562Z,7.13
2018-07-28T17:39:55.041Z,7.30
2018-07-28T17:42:22.825Z,5.77
2018-07-28T17:44:50.922Z,6.60
2018-07-28T17:47:18.831Z,5.83
2018-07-28T17:49:46.782Z,9.73
2018-07-28T17:52:14.668Z,7.33
2018-07-28T17:54:42.510Z,5.77
2018-07-28T17:57:10.462Z,5.80
2018-07-28T17:59:38.586Z,7.57
2018-07-28T18:02:07.485Z,8.43
2018-07-28T18:04:35.286Z,6.27
2018-07-28T18:07:03.222Z,11.10
2018-07-28T18:09:30.970Z,8.43
2018-07-28T18:11:59.944Z,9.60
2018-07-28T18:14:27.803Z,10.53
2018-07-28T18:16:55.716Z,8.30
2018-07-28T18:19:23.808Z,10.63
2018-07-28T18:21:51.654Z,9.60
2018-07-28T18:24:19.603Z,8.83
2018-07-28T18:26:47.477Z,15.30
2018-07-28T18:29:15.983Z,8.63
2018-07-28T18:31:43.841Z,11.17
2018-07-28T18:34:12.051Z,12.20
2018-07-28T18:36:40.513Z,10.63
2018-07-28T18:39:10.000Z,14.30
2018-07-28T18:41:37.768Z,9.87
2018-07-28T18:44:05.680Z,9.87
2018-07-28T18:46:33.876Z,26.57
2018-07-28T18:49:01.736Z,9.70
2018-07-28T18:51:29.639Z,12.73
2018-07-28T18:53:57.860Z,10.30
2018-07-28T18:56:25.812Z,9.17
2018-07-28T18:58:53.720Z,9.33
2018-07-28T19:01:21.734Z,14.37
2018-07-28T19:03:49.622Z,14.03
2018-07-28T19:06:18.264Z,9.53
2018-07-28T19:08:50.679Z,9.80
2018-07-28T19:11:18.590Z,10.40
2018-07-28T19:13:52.179Z,13.17
2018-07-28T19:16:20.819Z,13.93
2018-07-28T19:18:54.329Z,12.47
2018-07-28T19:21:22.189Z,9.50
2018-07-28T19:23:55.506Z,9.40
2018-07-28T19:26:23.367Z,15.30
2018-07-28T19:28:56.881Z,8.57
2018-07-28T19:31:24.828Z,8.63
2018-07-28T19:33:53.682Z,13.67
2018-07-28T19:36:28.004Z,10.40
2018-07-28T19:38:55.882Z,12.57
2018-07-28T19:41:23.748Z,15.03
2018-07-28T19:43:52.396Z,15.17
2018-07-28T19:46:21.066Z,23.03
2018-07-28T19:48:48.971Z,13.90
2018-07-28T19:51:17.066Z,11.10
2018-07-28T19:53:45.129Z,16.03
2018-07-28T19:56:13.036Z,10.23
2018-07-28T19:58:40.962Z,10.57
2018-07-28T20:01:09.073Z,9.50
2018-07-28T20:03:38.269Z,10.03
2018-07-28T20:06:06.023Z,16.63
2018-07-28T20:08:34.087Z,16.83
2018-07-28T20:11:01.861Z,15.43
2018-07-28T20:13:29.743Z,12.53
2018-07-28T20:15:57.505Z,13.60
2018-07-28T20:18:25.403Z,13.87
2018-07-28T20:20:53.282Z,11.30
2018-07-28T20:23:21.160Z,29.60
2018-07-28T20:25:49.057Z,29.40
2018-07-28T20:28:16.996Z,19.70
2018-07-28T20:30:45.934Z,17.30
2018-07-28T20:33:13.712Z,12.63
2018-07-28T20:35:41.638Z,10.03
2018-07-28T20:38:09.562Z,11.43
2018-07-28T20:40:37.473Z,15.50
2018-07-28T20:43:05.520Z,12.50
2018-07-28T20:45:33.608Z,15.77
2018-07-28T20:48:01.480Z,13.33
2018-07-28T20:50:29.250Z,13.87
2018-07-28T20:52:57.159Z,11.43
2018-07-28T20:55:25.031Z,16.93
2018-07-28T20:57:52.938Z,14.30
2018-07-28T21:00:20.703Z,15.17
2018-07-28T21:02:48.555Z,13.47
2018-07-28T21:05:16.449Z,17.13
2018-07-28T21:07:44.384Z,16.83
2018-07-28T21:10:12.303Z,16.67
2018-07-28T21:12:40.045Z,17.27
2018-07-28T21:15:07.937Z,14.17
2018-07-28T21:17:35.835Z,17.00
2018-07-28T21:20:04.349Z,13.97
2018-07-28T21:22:32.311Z,16.70
2018-07-28T21:25:00.263Z,17.00
2018-07-28T21:27:28.207Z,12.40
2018-07-28T21:29:56.159Z,17.03
2018-07-28T21:32:24.353Z,16.60
2018-07-28T21:34:52.726Z,12.03
2018-07-28T21:37:20.746Z,17.47
2018-07-28T21:39:49.370Z,16.03
2018-07-28T21:42:17.825Z,14.43
2018-07-28T21:44:45.715Z,13.50
2018-07-28T21:47:13.435Z,15.00
2018-07-28T21:49:41.643Z,17.20
2018-07-28T21:52:09.397Z,11.13
2018-07-28T21:54:38.538Z,20.50
2018-07-28T21:57:07.039Z,21.33
2018-07-28T21:59:35.554Z,18.73
2018-07-28T22:02:03.545Z,15.10
2018-07-28T22:04:33.662Z,14.37
2018-07-28T22:07:01.586Z,18.57
2018-07-28T22:09:29.462Z,13.40
2018-07-28T22:11:57.785Z,15.33
2018-07-28T22:14:25.686Z,15.47
2018-07-28T22:16:54.487Z,15.27
2018-07-28T22:19:22.408Z,17.40
2018-07-28T22:21:50.739Z,15.67
2018-07-28T22:24:18.757Z,13.50
2018-07-28T22:26:46.508Z,13.13
2018-07-28T22:29:14.305Z,18.30
2018-07-28T22:31:42.224Z,15.90
2018-07-28T22:34:11.403Z,14.33
2018-07-28T22:36:39.365Z,18.43
2018-07-28T22:39:09.836Z,16.20
2018-07-28T22:41:38.575Z,15.70
2018-07-28T22:44:06.559Z,17.30
2018-07-28T22:46:34.337Z,18.60
2018-07-28T22:49:02.262Z,14.53
2018-07-28T22:51:30.172Z,17.40
2018-07-28T22:53:58.117Z,16.80
2018-07-28T22:56:25.997Z,16.13
2018-07-28T22:58:54.410Z,15.60
2018-07-28T23:01:22.416Z,15.10
2018-07-28T23:03:50.268Z,15.53
2018-07-28T23:06:18.212Z,16.30
2018-07-28T23:08:52.542Z,18.50
2018-07-28T23:11:21.324Z,15.30
2018-07-28T23:13:49.402Z,15.73
2018-07-28T23:16:17.286Z,14.47
2018-07-28T23:18:45.947Z,14.60
2018-07-28T23:21:15.134Z,19.00
2018-07-28T23:23:43.076Z,21.10
2018-07-28T23:26:11.001Z,13.40
2018-07-28T23:28:38.752Z,12.97
2018-07-28T23:31:06.506Z,15.60
2018-07-28T23:33:34.309Z,13.40
2018-07-28T23:36:02.237Z,20.87
2018-07-28T23:38:30.146Z,18.40
2018-07-28T23:40:58.565Z,19.30
2018-07-28T23:43:26.897Z,18.50
2018-07-28T23:45:54.763Z,14.03
2018-07-28T23:48:22.623Z,14.90
2018-07-28T23:50:50.359Z,14.00
2018-07-28T23:53:18.855Z,14.60
2018-07-28T23:55:47.348Z,17.17
2018-07-28T23:58:15.120Z,16.50
